Time;durP1;ratioP1;P1;durP2;ratioP2;P2;SDS_P1;SDS_P2;PMS_P1;PMS_P2;Temp;Humidity;BMP_temperature;BMP_pressure;BME280_temperature;BME280_humidity;BME280_pressure;Samples;Min_cycle;Max_cycle;Signal;HPM_P1;HPM_P2
2022/12/02 00:00:49;;;;;;;69.75;42.35;;;6.10;99.90;;;;;;2078771;28;20022;-71
2022/12/02 00:01:51;;;;;;;69.95;42.20;;;6.10;99.90;;;;;;2078140;28;20021;-71
2022/12/02 00:02:54;;;;;;;64.43;39.63;;;6.10;99.90;;;;;;2077095;28;20535;-72
2022/12/02 00:03:56;;;;;;;68.10;41.30;;;6.10;99.90;;;;;;2077634;28;20041;-71
2022/12/02 00:04:58;;;;;;;65.78;40.05;;;6.10;99.90;;;;;;2077091;28;20038;-71
2022/12/02 00:05:59;;;;;;;67.15;40.58;;;6.10;99.90;;;;;;2078541;28;20025;-71
2022/12/02 00:07:00;;;;;;;66.68;40.80;;;6.10;99.90;;;;;;2078555;28;20029;-71
2022/12/02 00:08:15;;;;;;;64.70;40.40;;;6.10;99.90;;;;;;2085966;28;20021;-71
2022/12/02 00:09:27;;;;;;;65.10;40.40;;;6.10;99.90;;;;;;2082563;28;20571;-71
2022/12/02 00:10:33;;;;;;;70.55;40.17;;;6.20;99.90;;;;;;2077348;28;20030;-72
2022/12/02 00:11:33;;;;;;;66.10;41.17;;;6.20;99.90;;;;;;2077932;28;20036;-72
2022/12/02 00:12:35;;;;;;;75.65;44.50;;;6.20;99.90;;;;;;2068398;28;20045;-71
2022/12/02 00:13:41;;;;;;;73.38;42.63;;;6.20;99.90;;;;;;2076369;28;20107;-72
2022/12/02 00:14:41;;;;;;;74.18;43.35;;;6.20;99.90;;;;;;2076723;28;20046;-71
2022/12/02 00:15:44;;;;;;;74.72;44.40;;;6.20;99.90;;;;;;2077867;28;20034;-71
2022/12/02 00:16:45;;;;;;;82.63;44.90;;;6.20;99.90;;;;;;2075173;28;20017;-71
2022/12/02 00:17:45;;;;;;;74.93;43.75;;;6.20;99.90;;;;;;2079540;28;20100;-71
2022/12/02 00:18:46;;;;;;;80.35;45.00;;;6.20;99.90;;;;;;2077841;28;20026;-72
2022/12/02 00:19:47;;;;;;;81.10;45.97;;;6.20;99.90;;;;;;2076583;28;20370;-71
2022/12/02 00:20:47;;;;;;;84.40;46.75;;;6.20;99.90;;;;;;2078185;28;20080;-71
2022/12/02 00:21:50;;;;;;;78.43;45.97;;;6.20;99.90;;;;;;2077980;28;20112;-71
2022/12/02 00:22:50;;;;;;;75.82;44.22;;;6.20;99.90;;;;;;2078506;28;20029;-72
2022/12/02 00:23:51;;;;;;;77.63;44.90;;;6.20;99.90;;;;;;2078109;28;20033;-71
2022/12/02 00:24:51;;;;;;;79.70;43.20;;;6.10;99.90;;;;;;2076427;28;20544;-71
2022/12/02 00:25:53;;;;;;;78.75;45.03;;;6.10;99.90;;;;;;2078259;28;20025;-72
2022/12/02 00:26:54;;;;;;;79.95;45.42;;;6.10;99.90;;;;;;2075612;28;20034;-71
2022/12/02 00:27:54;;;;;;;80.78;45.95;;;6.10;99.90;;;;;;2077172;28;20041;-71
2022/12/02 00:28:55;;;;;;;79.05;44.65;;;6.10;99.90;;;;;;2077300;28;20029;-71
2022/12/02 00:29:55;;;;;;;80.05;44.20;;;6.20;99.90;;;;;;2085048;28;20035;-71
2022/12/02 00:30:56;;;;;;;81.13;44.55;;;6.20;99.90;;;;;;2085163;28;20067;-71
2022/12/02 00:31:56;;;;;;;80.25;45.78;;;6.10;99.90;;;;;;2077733;28;20028;-71
2022/12/02 00:32:57;;;;;;;80.40;45.03;;;6.20;99.90;;;;;;2077030;28;20033;-71
2022/12/02 00:33:59;;;;;;;78.00;45.20;;;6.10;99.90;;;;;;2085944;28;20085;-72
2022/12/02 00:34:59;;;;;;;79.28;44.03;;;6.20;99.90;;;;;;2085713;28;20104;-71
2022/12/02 00:36:00;;;;;;;78.10;43.88;;;6.10;99.90;;;;;;2077119;28;20072;-71
2022/12/02 00:37:00;;;;;;;79.63;44.38;;;6.10;99.90;;;;;;2079253;28;20509;-72
2022/12/02 00:38:01;;;;;;;77.05;43.88;;;6.10;99.90;;;;;;2076679;28;20068;-72
2022/12/02 00:39:02;;;;;;;74.43;42.47;;;6.10;99.90;;;;;;2075609;28;20017;-71
2022/12/02 00:40:02;;;;;;;71.78;41.63;;;6.10;99.90;;;;;;2078780;28;20048;-71
2022/12/02 00:41:03;;;;;;;75.70;41.83;;;6.10;99.90;;;;;;2081785;28;20025;-71
2022/12/02 00:42:04;;;;;;;72.20;42.42;;;6.00;99.90;;;;;;2085797;28;20026;-72
2022/12/02 00:47:01;;;;;;;75.30;43.45;;;5.90;99.90;;;;;;2077054;28;20033;-72
2022/12/02 00:48:02;;;;;;;75.97;41.63;;;5.90;99.90;;;;;;2077431;28;20021;-72
2022/12/02 00:49:13;;;;;;;70.85;41.17;;;5.90;99.90;;;;;;2075263;28;20056;-72
2022/12/02 00:50:14;;;;;;;74.65;42.28;;;5.90;99.90;;;;;;2076378;28;20022;-71
2022/12/02 00:51:14;;;;;;;76.53;41.50;;;5.90;99.90;;;;;;2077378;28;20450;-71
2022/12/02 00:52:15;;;;;;;73.18;41.75;;;5.90;99.90;;;;;;2077247;28;20032;-71
2022/12/02 00:53:15;;;;;;;69.10;39.83;;;5.90;99.90;;;;;;2077870;28;20032;-72
2022/12/02 00:54:16;;;;;;;71.97;40.90;;;5.90;99.90;;;;;;2084131;28;20528;-72
2022/12/02 00:55:17;;;;;;;71.38;42.83;;;5.90;99.90;;;;;;2085038;28;20017;-71
2022/12/02 00:56:17;;;;;;;74.55;39.75;;;5.90;99.90;;;;;;2076024;28;20124;-71
2022/12/02 00:57:18;;;;;;;74.57;40.90;;;5.90;99.90;;;;;;2076882;28;20061;-72
2022/12/02 00:58:18;;;;;;;69.30;40.35;;;5.90;99.90;;;;;;2077925;28;20595;-72
2022/12/02 00:59:20;;;;;;;69.80;39.58;;;5.90;99.90;;;;;;2078052;28;20216;-71
2022/12/02 01:00:21;;;;;;;72.15;42.10;;;5.90;99.90;;;;;;2078280;28;20049;-72
2022/12/02 01:01:21;;;;;;;71.95;40.38;;;5.90;99.90;;;;;;2077738;28;20525;-72
2022/12/02 01:02:22;;;;;;;71.75;40.03;;;5.90;99.90;;;;;;2075928;28;20136;-71
2022/12/02 01:03:23;;;;;;;70.90;40.13;;;5.90;99.90;;;;;;2074857;28;20108;-71
2022/12/02 01:04:23;;;;;;;70.55;41.30;;;5.90;99.90;;;;;;2075285;28;20033;-71
2022/12/02 01:05:24;;;;;;;69.85;41.05;;;5.90;99.90;;;;;;2075331;28;20029;-71
2022/12/02 01:06:24;;;;;;;66.57;39.13;;;5.90;99.90;;;;;;2080025;28;20025;-71
2022/12/02 01:07:25;;;;;;;71.75;40.85;;;5.90;99.90;;;;;;2077973;28;20470;-72
2022/12/02 01:08:26;;;;;;;70.72;38.92;;;5.90;99.90;;;;;;2076907;28;20758;-72
2022/12/02 01:09:27;;;;;;;70.10;40.42;;;5.90;99.90;;;;;;2078731;28;20385;-72
2022/12/02 01:10:27;;;;;;;72.00;39.83;;;5.90;99.90;;;;;;2077687;28;20119;-71
2022/12/02 01:11:28;;;;;;;68.68;39.08;;;5.90;99.90;;;;;;2076250;28;20033;-71
2022/12/02 01:12:28;;;;;;;69.93;40.53;;;5.90;99.90;;;;;;2077838;28;20044;-71
2022/12/02 01:13:29;;;;;;;70.18;39.42;;;5.90;99.90;;;;;;2076712;28;20474;-71
2022/12/02 01:14:29;;;;;;;70.68;38.60;;;5.90;99.90;;;;;;2079074;28;20088;-72
2022/12/02 01:15:30;;;;;;;67.13;39.38;;;5.90;99.90;;;;;;2075971;28;20486;-71
2022/12/02 01:16:30;;;;;;;70.63;39.20;;;5.90;99.90;;;;;;2076552;28;20029;-71
2022/12/02 01:17:31;;;;;;;68.22;37.80;;;6.00;99.90;;;;;;2077504;28;21005;-71
2022/12/02 01:18:32;;;;;;;68.40;39.63;;;6.00;99.90;;;;;;2078201;28;20026;-72
2022/12/02 01:19:32;;;;;;;68.68;39.17;;;6.00;99.90;;;;;;2078109;28;20027;-71
2022/12/02 01:20:33;;;;;;;67.72;37.95;;;6.00;99.90;;;;;;2075457;28;20056;-71
2022/12/02 01:21:33;;;;;;;64.72;37.00;;;6.00;99.90;;;;;;2077112;28;20025;-71
2022/12/02 01:22:34;;;;;;;64.78;38.10;;;6.00;99.90;;;;;;2085581;28;20029;-72
2022/12/02 01:23:34;;;;;;;70.78;39.95;;;6.00;99.90;;;;;;2085853;28;20094;-71
2022/12/02 01:24:35;;;;;;;66.63;38.05;;;6.00;99.90;;;;;;2075353;28;20064;-72
2022/12/02 01:25:36;;;;;;;65.40;37.45;;;6.00;99.90;;;;;;2077691;28;20033;-71
2022/12/02 01:26:36;;;;;;;67.15;38.33;;;6.00;99.90;;;;;;2076007;28;20537;-72
2022/12/02 01:27:37;;;;;;;71.43;39.35;;;6.00;99.90;;;;;;2077032;28;20113;-72
2022/12/02 01:28:38;;;;;;;65.68;39.05;;;6.00;99.90;;;;;;2075573;28;20486;-72
2022/12/02 01:29:38;;;;;;;66.82;38.65;;;6.00;99.90;;;;;;2073263;28;20381;-71
2022/12/02 01:30:39;;;;;;;70.15;40.00;;;5.90;99.90;;;;;;2075175;28;20057;-71
2022/12/02 01:31:39;;;;;;;75.55;40.60;;;6.00;99.90;;;;;;2077429;28;20041;-72
2022/12/02 01:32:40;;;;;;;72.70;39.05;;;6.00;99.90;;;;;;2075257;28;20049;-72
2022/12/02 01:33:41;;;;;;;66.70;38.25;;;6.00;99.90;;;;;;2077157;28;20048;-72
2022/12/02 01:34:41;;;;;;;65.85;38.65;;;5.90;99.90;;;;;;2075627;28;20025;-72
2022/12/02 01:35:42;;;;;;;70.10;40.97;;;5.90;99.90;;;;;;2074657;28;20668;-71
2022/12/02 01:36:42;;;;;;;67.53;40.13;;;5.90;99.90;;;;;;2075780;28;20033;-71
2022/12/02 01:37:43;;;;;;;71.38;40.22;;;5.90;99.90;;;;;;2078148;28;20067;-71
2022/12/02 01:38:44;;;;;;;68.53;39.80;;;5.90;99.90;;;;;;2077147;28;20393;-71
2022/12/02 01:39:44;;;;;;;69.95;39.03;;;5.90;99.90;;;;;;2076369;28;20133;-71
2022/12/02 01:40:45;;;;;;;65.63;38.15;;;5.90;99.90;;;;;;2076735;28;20032;-71
2022/12/02 01:41:46;;;;;;;68.20;39.47;;;5.90;99.90;;;;;;2078084;28;20018;-72
2022/12/02 01:42:47;;;;;;;72.57;40.70;;;5.80;99.90;;;;;;2076135;28;20029;-71
2022/12/02 01:43:48;;;;;;;70.07;39.72;;;5.80;99.90;;;;;;2075666;28;20037;-71
2022/12/02 01:44:49;;;;;;;66.68;39.35;;;5.80;99.90;;;;;;2073905;28;20037;-71
2022/12/02 01:45:49;;;;;;;70.80;40.88;;;5.80;99.90;;;;;;2077231;28;20124;-71
2022/12/02 01:46:50;;;;;;;71.07;38.95;;;5.80;99.90;;;;;;2076548;28;20067;-71
2022/12/02 01:47:51;;;;;;;74.18;40.70;;;5.80;99.90;;;;;;2079104;28;20029;-72
2022/12/02 01:48:52;;;;;;;69.90;40.17;;;5.80;99.90;;;;;;2074028;28;20032;-72
2022/12/02 01:49:53;;;;;;;68.63;39.70;;;5.80;99.90;;;;;;2077750;28;20022;-71
2022/12/02 01:50:53;;;;;;;69.93;40.45;;;5.80;99.90;;;;;;2078022;28;20124;-72
2022/12/02 01:51:54;;;;;;;70.57;39.92;;;5.80;99.90;;;;;;2078245;28;20022;-71
2022/12/02 01:52:55;;;;;;;69.70;39.30;;;5.80;99.90;;;;;;2077977;28;20025;-71
2022/12/02 01:53:55;;;;;;;70.40;40.63;;;5.80;99.90;;;;;;2076974;28;20122;-71
2022/12/02 01:54:56;;;;;;;69.78;40.10;;;5.80;99.90;;;;;;2078076;28;20025;-71
2022/12/02 01:55:57;;;;;;;72.15;40.97;;;5.80;99.90;;;;;;2078661;28;20029;-72
2022/12/02 01:56:57;;;;;;;68.82;39.42;;;5.80;99.90;;;;;;2082166;28;20030;-71
2022/12/02 01:57:58;;;;;;;72.65;41.95;;;5.80;99.90;;;;;;2084706;28;20033;-72
2022/12/02 01:58:59;;;;;;;74.85;41.10;;;5.80;99.90;;;;;;2079098;28;20064;-72
2022/12/02 02:00:00;;;;;;;75.10;40.88;;;5.80;99.90;;;;;;2077240;28;20018;-71
2022/12/02 02:01:00;;;;;;;72.50;40.13;;;5.80;99.90;;;;;;2077955;28;20063;-72
2022/12/02 02:02:01;;;;;;;65.00;38.22;;;5.80;99.90;;;;;;2078285;28;20060;-71
2022/12/02 02:03:01;;;;;;;70.28;41.20;;;5.80;99.90;;;;;;2077185;28;20017;-71
2022/12/02 02:04:03;;;;;;;72.82;42.15;;;5.80;99.90;;;;;;2078290;28;20059;-71
2022/12/02 02:05:14;;;;;;;68.35;40.00;;;5.70;99.90;;;;;;2077010;28;20054;-71
2022/12/02 02:06:14;;;;;;;69.78;40.88;;;5.80;99.90;;;;;;2078115;28;20025;-72
2022/12/02 02:07:15;;;;;;;77.80;41.85;;;5.80;99.90;;;;;;2076717;28;20026;-72
2022/12/02 02:08:16;;;;;;;75.32;42.28;;;5.80;99.90;;;;;;2075349;28;20029;-72
2022/12/02 02:09:17;;;;;;;70.70;39.95;;;5.80;99.90;;;;;;2077825;28;20102;-71
2022/12/02 02:10:19;;;;;;;70.05;39.63;;;5.80;99.90;;;;;;2077040;28;20025;-71
2022/12/02 02:11:20;;;;;;;75.20;42.60;;;5.80;99.90;;;;;;2075986;28;20044;-71
2022/12/02 02:12:22;;;;;;;71.28;41.00;;;5.80;99.90;;;;;;2075954;28;20033;-71
2022/12/02 02:13:23;;;;;;;79.10;42.33;;;5.80;99.90;;;;;;2076316;28;20556;-72
2022/12/02 02:14:23;;;;;;;72.38;42.03;;;5.80;99.90;;;;;;2077372;28;20712;-72
2022/12/02 02:15:24;;;;;;;69.13;40.83;;;5.80;99.90;;;;;;2075076;28;20017;-71
2022/12/02 02:16:25;;;;;;;71.63;40.25;;;5.80;99.90;;;;;;2076786;28;20140;-72
2022/12/02 02:17:27;;;;;;;78.10;42.80;;;5.80;99.90;;;;;;2077977;28;20034;-72
2022/12/02 02:18:27;;;;;;;68.90;39.70;;;5.80;99.90;;;;;;2077216;28;20028;-71
2022/12/02 02:19:28;;;;;;;75.93;41.78;;;5.80;99.90;;;;;;2076840;28;20029;-72
2022/12/02 02:20:29;;;;;;;75.25;42.05;;;5.80;99.90;;;;;;2073634;28;20025;-71
2022/12/02 02:21:38;;;;;;;69.57;40.65;;;5.80;99.90;;;;;;2072604;28;20030;-71
2022/12/02 02:22:51;;;;;;;72.15;40.25;;;5.80;99.90;;;;;;2077178;28;20037;-72
2022/12/02 02:23:51;;;;;;;76.85;42.28;;;5.80;99.90;;;;;;2075758;28;20029;-71
2022/12/02 02:24:52;;;;;;;70.45;41.35;;;5.80;99.90;;;;;;2077077;28;20100;-72
2022/12/02 02:25:56;;;;;;;69.10;40.67;;;5.80;99.90;;;;;;2076538;28;20018;-72
2022/12/02 02:26:57;;;;;;;73.40;41.67;;;5.80;99.90;;;;;;2075884;28;20037;-71
2022/12/02 02:28:00;;;;;;;73.00;40.42;;;5.80;99.90;;;;;;2076467;28;20084;-71
2022/12/02 02:29:00;;;;;;;75.70;42.97;;;5.80;99.90;;;;;;2076987;28;20025;-71
2022/12/02 02:30:01;;;;;;;75.53;41.28;;;5.80;99.90;;;;;;2077278;28;20025;-72
2022/12/02 02:31:02;;;;;;;75.68;42.22;;;5.80;99.90;;;;;;2076579;28;20036;-71
2022/12/02 02:32:03;;;;;;;72.75;40.92;;;5.80;99.90;;;;;;2074848;28;20037;-72
2022/12/02 02:33:06;;;;;;;72.90;40.45;;;5.80;99.90;;;;;;2074416;28;20032;-71
2022/12/02 02:34:07;;;;;;;74.57;40.72;;;5.80;99.90;;;;;;2076989;28;20446;-71
2022/12/02 02:35:08;;;;;;;74.47;41.72;;;5.80;99.90;;;;;;2074296;28;20055;-72
2022/12/02 02:36:09;;;;;;;77.55;42.60;;;5.80;99.90;;;;;;2076553;28;20052;-71
2022/12/02 02:37:10;;;;;;;74.90;42.17;;;5.80;99.90;;;;;;2077356;28;20021;-71
2022/12/02 02:38:18;;;;;;;75.30;42.63;;;5.80;99.90;;;;;;2074754;28;20029;-72
2022/12/02 02:39:20;;;;;;;75.35;42.35;;;5.80;99.90;;;;;;2076677;28;20076;-72
2022/12/02 02:40:22;;;;;;;78.15;42.88;;;5.70;99.90;;;;;;2079197;28;20518;-72
2022/12/02 02:41:23;;;;;;;71.53;40.72;;;5.80;99.90;;;;;;2076141;28;20030;-72
2022/12/02 02:42:23;;;;;;;79.90;43.60;;;5.80;99.90;;;;;;2076907;28;20041;-71
2022/12/02 02:43:27;;;;;;;76.68;41.70;;;5.80;99.90;;;;;;2077970;28;20577;-71
2022/12/02 02:44:28;;;;;;;79.18;41.92;;;5.80;99.90;;;;;;2078681;28;20040;-71
2022/12/02 02:45:34;;;;;;;77.32;42.40;;;5.80;99.90;;;;;;2078088;28;20094;-71
2022/12/02 02:46:34;;;;;;;74.53;43.25;;;5.80;99.90;;;;;;2078394;28;20030;-72
2022/12/02 02:47:35;;;;;;;80.03;43.58;;;5.80;99.90;;;;;;2078652;28;20029;-71
2022/12/02 02:48:36;;;;;;;78.93;42.63;;;5.80;99.90;;;;;;2078111;28;20029;-72
2022/12/02 02:49:37;;;;;;;75.35;42.45;;;5.80;99.90;;;;;;2078042;28;20060;-72
2022/12/02 02:50:40;;;;;;;80.00;42.55;;;5.80;99.90;;;;;;2078369;28;20033;-71
2022/12/02 02:51:41;;;;;;;75.53;42.85;;;5.80;99.90;;;;;;2078073;28;20139;-71
2022/12/02 02:52:42;;;;;;;71.45;41.58;;;5.80;99.90;;;;;;2069371;28;20068;-71
2022/12/02 02:53:43;;;;;;;71.13;41.53;;;5.80;99.90;;;;;;2077239;28;20026;-71
2022/12/02 02:54:43;;;;;;;77.68;42.15;;;5.80;99.90;;;;;;2077672;28;20045;-71
2022/12/02 02:55:44;;;;;;;77.80;42.42;;;5.80;99.90;;;;;;2078420;28;20029;-71
2022/12/02 02:56:44;;;;;;;76.93;42.47;;;5.80;99.90;;;;;;2079615;28;20129;-71
2022/12/02 02:57:45;;;;;;;76.13;41.95;;;5.80;99.90;;;;;;2078893;28;20099;-71
2022/12/02 02:58:46;;;;;;;80.65;43.80;;;5.80;99.90;;;;;;2079462;28;20018;-72
2022/12/02 02:59:50;;;;;;;75.50;41.78;;;5.80;99.90;;;;;;2078750;28;20110;-71
2022/12/02 03:00:56;;;;;;;72.93;42.58;;;5.80;99.90;;;;;;2079259;28;20027;-71
2022/12/02 03:01:57;;;;;;;72.68;41.25;;;5.80;99.90;;;;;;2076851;28;20532;-71
2022/12/02 03:02:58;;;;;;;74.20;41.67;;;5.80;99.90;;;;;;2076976;28;20547;-72
2022/12/02 03:04:07;;;;;;;78.78;43.25;;;5.80;99.90;;;;;;2077170;28;20576;-72
2022/12/02 03:05:08;;;;;;;75.50;43.72;;;5.80;99.90;;;;;;2078272;28;20402;-72
2022/12/02 03:06:10;;;;;;;77.13;42.83;;;5.70;99.90;;;;;;2078314;28;20063;-71
2022/12/02 03:07:11;;;;;;;80.13;44.70;;;5.80;99.90;;;;;;2079212;28;20040;-71
2022/12/02 03:08:12;;;;;;;78.97;45.40;;;5.80;99.90;;;;;;2079012;28;20053;-72
2022/12/02 03:09:17;;;;;;;77.63;41.67;;;5.80;99.90;;;;;;2078871;28;20147;-71
2022/12/02 03:10:18;;;;;;;79.47;43.83;;;5.80;99.90;;;;;;2078167;28;20116;-71
2022/12/02 03:11:19;;;;;;;80.63;43.97;;;5.80;99.90;;;;;;2077285;28;20057;-72
2022/12/02 03:12:20;;;;;;;74.65;42.70;;;5.70;99.90;;;;;;2076312;28;20104;-72
2022/12/02 03:13:21;;;;;;;75.97;43.05;;;5.80;99.90;;;;;;2079358;28;20108;-71
2022/12/02 03:14:22;;;;;;;75.60;43.28;;;5.70;99.90;;;;;;2078537;28;20064;-71
2022/12/02 03:15:26;;;;;;;76.05;43.65;;;5.70;99.90;;;;;;2079422;28;20030;-71
2022/12/02 03:16:27;;;;;;;81.93;42.58;;;5.70;99.90;;;;;;2077029;28;20026;-71
2022/12/02 03:17:27;;;;;;;79.78;43.92;;;5.70;99.90;;;;;;2078589;28;20045;-72
2022/12/02 03:18:28;;;;;;;79.47;43.63;;;5.80;99.90;;;;;;2078429;28;20044;-71
2022/12/02 03:19:31;;;;;;;77.95;41.97;;;5.80;99.90;;;;;;2076966;28;20021;-71
2022/12/02 03:20:32;;;;;;;79.43;41.58;;;5.80;99.90;;;;;;2078311;28;20116;-71
2022/12/02 03:21:33;;;;;;;76.90;41.95;;;5.80;99.90;;;;;;2077663;28;20021;-71
2022/12/02 03:22:34;;;;;;;82.80;42.47;;;5.80;99.90;;;;;;2078270;28;20048;-72
2022/12/02 03:23:35;;;;;;;82.28;44.63;;;5.80;99.90;;;;;;2078523;28;20104;-71
2022/12/02 03:24:36;;;;;;;80.22;42.97;;;5.80;99.90;;;;;;2075072;28;20077;-72
2022/12/02 03:25:37;;;;;;;76.85;43.58;;;5.80;99.90;;;;;;2078438;28;20031;-71
2022/12/02 03:26:39;;;;;;;74.45;42.60;;;5.80;99.90;;;;;;2077125;28;20032;-71
2022/12/02 03:27:40;;;;;;;82.55;42.00;;;5.80;99.90;;;;;;2077017;28;20505;-71
2022/12/02 03:28:41;;;;;;;78.78;40.92;;;5.80;99.90;;;;;;2076225;28;20354;-72
2022/12/02 03:29:42;;;;;;;79.40;44.20;;;5.90;99.90;;;;;;2078919;28;20731;-71
2022/12/02 03:30:43;;;;;;;82.85;43.17;;;5.90;99.90;;;;;;2076642;28;20029;-72
2022/12/02 03:31:44;;;;;;;86.88;44.67;;;5.90;99.90;;;;;;2078130;28;20033;-71
2022/12/02 03:32:45;;;;;;;84.70;44.03;;;5.90;99.90;;;;;;2078171;28;20469;-71
2022/12/02 03:33:46;;;;;;;75.75;41.83;;;5.90;99.90;;;;;;2076493;28;20033;-71
2022/12/02 03:34:47;;;;;;;77.97;41.30;;;5.90;99.90;;;;;;2077765;28;20538;-71
2022/12/02 03:35:48;;;;;;;78.35;42.88;;;5.90;99.90;;;;;;2076520;28;20482;-72
2022/12/02 03:36:49;;;;;;;83.47;42.40;;;5.90;99.90;;;;;;2077582;28;20045;-71
2022/12/02 03:37:49;;;;;;;78.45;43.13;;;5.90;99.90;;;;;;2075195;28;20026;-72
2022/12/02 03:38:50;;;;;;;76.35;42.58;;;5.90;99.90;;;;;;2077193;28;20378;-71
2022/12/02 03:39:51;;;;;;;83.43;44.45;;;5.90;99.90;;;;;;2076804;28;20493;-72
2022/12/02 03:40:52;;;;;;;81.78;44.30;;;5.90;99.90;;;;;;2078773;28;20401;-71
2022/12/02 03:41:53;;;;;;;78.88;43.92;;;5.90;99.90;;;;;;2078436;28;20026;-72
2022/12/02 03:42:54;;;;;;;85.03;42.97;;;5.90;99.90;;;;;;2075544;28;20067;-72
2022/12/02 03:43:58;;;;;;;81.75;44.15;;;5.90;99.90;;;;;;2069456;28;20030;-71
2022/12/02 03:44:58;;;;;;;80.90;42.58;;;5.90;99.90;;;;;;2077166;28;20737;-72
2022/12/02 03:46:01;;;;;;;80.65;44.83;;;5.90;99.90;;;;;;2076562;28;20033;-71
2022/12/02 03:47:02;;;;;;;86.68;45.00;;;5.90;99.90;;;;;;2075920;28;20053;-71
2022/12/02 03:48:04;;;;;;;78.38;42.92;;;5.90;99.90;;;;;;2076272;28;20527;-71
2022/12/02 03:49:05;;;;;;;74.90;42.17;;;5.90;99.90;;;;;;2076236;28;20128;-72
2022/12/02 03:50:06;;;;;;;79.88;42.72;;;5.90;99.90;;;;;;2076830;28;20029;-71
2022/12/02 03:51:10;;;;;;;80.50;41.22;;;5.90;99.90;;;;;;2076406;28;20029;-71
2022/12/02 03:52:10;;;;;;;78.40;41.97;;;5.90;99.90;;;;;;2077590;28;20036;-71
2022/12/02 03:53:11;;;;;;;83.90;42.45;;;5.90;99.90;;;;;;2078443;28;20033;-71
2022/12/02 03:54:12;;;;;;;81.18;43.28;;;5.90;99.90;;;;;;2076139;28;20037;-71
2022/12/02 03:55:13;;;;;;;84.35;42.28;;;5.90;99.90;;;;;;2076728;28;20030;-71
2022/12/02 03:56:13;;;;;;;79.68;42.67;;;5.90;99.90;;;;;;2077476;28;20068;-71
2022/12/02 03:57:14;;;;;;;82.05;42.35;;;5.90;99.90;;;;;;2075550;28;20546;-72
2022/12/02 03:58:15;;;;;;;80.75;43.13;;;5.90;99.90;;;;;;2076971;28;20029;-71
2022/12/02 03:59:21;;;;;;;81.43;42.15;;;5.90;99.90;;;;;;2075433;28;20022;-71
2022/12/02 04:00:22;;;;;;;83.97;42.15;;;5.90;99.90;;;;;;2074932;28;20021;-71
2022/12/02 04:01:23;;;;;;;81.30;43.33;;;5.90;99.90;;;;;;2077768;28;20044;-71
2022/12/02 04:02:23;;;;;;;79.68;42.88;;;5.90;99.90;;;;;;2078288;28;20021;-71
2022/12/02 04:03:24;;;;;;;82.40;44.65;;;5.90;99.90;;;;;;2075948;28;20034;-72
2022/12/02 04:04:24;;;;;;;77.28;43.85;;;5.90;99.90;;;;;;2085712;28;20055;-71
2022/12/02 04:05:25;;;;;;;84.45;43.00;;;5.90;99.90;;;;;;2085528;28;20025;-71
2022/12/02 04:06:25;;;;;;;79.78;41.67;;;5.90;99.90;;;;;;2076826;28;20102;-71
2022/12/02 04:07:26;;;;;;;85.03;44.20;;;5.90;99.90;;;;;;2078069;28;20136;-71
2022/12/02 04:08:27;;;;;;;90.53;44.85;;;5.90;99.90;;;;;;2075904;28;20105;-72
2022/12/02 04:09:27;;;;;;;78.97;40.97;;;5.90;99.90;;;;;;2077675;28;20451;-72
2022/12/02 04:10:28;;;;;;;77.72;42.45;;;5.90;99.90;;;;;;2077795;28;20026;-71
2022/12/02 04:11:28;;;;;;;80.22;41.42;;;5.90;99.90;;;;;;2075734;28;20139;-71
2022/12/02 04:12:29;;;;;;;86.75;44.13;;;5.90;99.90;;;;;;2077985;28;20790;-71
2022/12/02 04:13:29;;;;;;;84.95;43.10;;;5.90;99.90;;;;;;2077345;28;20068;-72
2022/12/02 04:14:30;;;;;;;86.07;42.22;;;5.90;99.90;;;;;;2077842;28;20045;-71
2022/12/02 04:15:30;;;;;;;81.25;42.33;;;5.90;99.90;;;;;;2078237;28;20006;-72
2022/12/02 04:16:31;;;;;;;87.63;43.95;;;5.90;99.90;;;;;;2069690;28;20533;-71
2022/12/02 04:17:31;;;;;;;80.30;42.00;;;5.90;99.90;;;;;;2077627;28;20543;-71
2022/12/02 04:18:32;;;;;;;77.75;41.50;;;5.90;99.90;;;;;;2078706;28;20037;-71
2022/12/02 04:19:32;;;;;;;76.90;40.65;;;5.90;99.90;;;;;;2077964;28;20104;-72
2022/12/02 04:20:33;;;;;;;79.43;41.40;;;5.90;99.90;;;;;;2078719;28;20021;-71
2022/12/02 04:21:33;;;;;;;84.95;43.05;;;5.90;99.90;;;;;;2078497;28;20061;-71
2022/12/02 04:22:34;;;;;;;90.72;44.00;;;5.90;99.90;;;;;;2076222;28;20025;-72
2022/12/02 04:23:34;;;;;;;76.93;40.95;;;5.90;99.90;;;;;;2083775;28;20735;-71
2022/12/02 04:24:35;;;;;;;79.75;40.05;;;5.90;99.90;;;;;;2083784;28;20025;-71
2022/12/02 04:25:35;;;;;;;78.63;40.90;;;5.90;99.90;;;;;;2077583;28;20025;-71
2022/12/02 04:26:36;;;;;;;79.65;42.58;;;5.90;99.90;;;;;;2076748;28;20075;-72
2022/12/02 04:27:36;;;;;;;84.35;42.55;;;5.90;99.90;;;;;;2075448;28;20029;-71
2022/12/02 04:28:37;;;;;;;90.75;42.20;;;5.90;99.90;;;;;;2076620;28;20034;-72
2022/12/02 04:29:37;;;;;;;85.70;42.80;;;5.90;99.90;;;;;;2075793;28;20128;-71
2022/12/02 04:30:38;;;;;;;79.78;42.25;;;5.90;99.90;;;;;;2076205;28;20493;-71
2022/12/02 04:31:38;;;;;;;81.97;43.08;;;5.90;99.90;;;;;;2075701;28;20032;-72
2022/12/02 04:32:39;;;;;;;84.22;42.70;;;5.90;99.90;;;;;;2075202;28;20038;-72
2022/12/02 04:33:40;;;;;;;77.82;42.55;;;5.90;99.90;;;;;;2077459;28;20489;-72
2022/12/02 04:34:40;;;;;;;83.80;42.13;;;5.90;99.90;;;;;;2076128;28;20025;-72
2022/12/02 04:35:41;;;;;;;85.40;42.83;;;5.90;99.90;;;;;;2077357;28;20096;-71
2022/12/02 04:36:41;;;;;;;83.82;41.85;;;5.90;99.90;;;;;;2078677;28;20029;-71
2022/12/02 04:37:42;;;;;;;84.20;42.70;;;5.90;99.90;;;;;;2076713;28;20030;-72
2022/12/02 04:38:42;;;;;;;90.65;43.83;;;5.90;99.90;;;;;;2077704;28;20526;-72
2022/12/02 04:39:43;;;;;;;81.38;43.88;;;5.90;99.90;;;;;;2077092;28;20079;-71
2022/12/02 04:40:43;;;;;;;86.53;43.80;;;5.90;99.90;;;;;;2076104;28;20022;-71
2022/12/02 04:41:44;;;;;;;89.15;43.38;;;5.90;99.90;;;;;;2077808;28;20116;-71
2022/12/02 04:42:45;;;;;;;86.18;42.58;;;5.80;99.90;;;;;;2040537;28;1057455;-71
2022/12/02 04:43:45;;;;;;;89.40;42.38;;;5.80;99.90;;;;;;2077636;28;20038;-71
2022/12/02 04:44:46;;;;;;;84.15;42.05;;;5.80;99.90;;;;;;2078804;28;20546;-71
2022/12/02 04:45:46;;;;;;;88.38;41.50;;;5.80;99.90;;;;;;2078049;28;20053;-72
2022/12/02 04:46:47;;;;;;;81.68;42.17;;;5.80;99.90;;;;;;2076790;28;20026;-72
2022/12/02 04:47:47;;;;;;;87.47;42.47;;;5.70;99.90;;;;;;2072503;28;20565;-71
2022/12/02 04:48:48;;;;;;;83.10;41.65;;;5.70;99.90;;;;;;2073309;28;20129;-72
2022/12/02 04:49:48;;;;;;;85.90;43.20;;;5.70;99.90;;;;;;2077216;28;20037;-72
2022/12/02 04:50:49;;;;;;;88.70;42.53;;;5.70;99.90;;;;;;2076690;28;20029;-72
2022/12/02 04:51:49;;;;;;;88.47;42.92;;;5.70;99.90;;;;;;2078895;28;20025;-72
2022/12/02 04:52:50;;;;;;;88.47;43.72;;;5.70;99.90;;;;;;2077264;28;20076;-71
2022/12/02 04:53:50;;;;;;;85.68;41.72;;;5.70;99.90;;;;;;2078799;28;20020;-71
2022/12/02 04:54:51;;;;;;;83.90;41.53;;;5.70;99.90;;;;;;2077655;28;20702;-71
2022/12/02 04:55:51;;;;;;;85.82;41.90;;;5.70;99.90;;;;;;2078136;28;20049;-71
2022/12/02 04:56:52;;;;;;;79.22;41.60;;;5.70;99.90;;;;;;2077402;28;20039;-72
2022/12/02 04:57:52;;;;;;;85.00;40.53;;;5.70;99.90;;;;;;2076537;28;20027;-71
2022/12/02 04:58:53;;;;;;;91.53;42.15;;;5.70;99.90;;;;;;2077476;28;20022;-71
2022/12/02 04:59:53;;;;;;;86.20;41.33;;;5.60;99.90;;;;;;2074419;28;20059;-71
2022/12/02 05:00:54;;;;;;;81.00;39.92;;;5.70;99.90;;;;;;2075408;28;20030;-72
2022/12/02 05:01:54;;;;;;;81.72;40.72;;;5.60;99.90;;;;;;2078120;28;20032;-72
2022/12/02 05:02:55;;;;;;;77.68;41.22;;;5.60;99.90;;;;;;2084518;28;20029;-71
2022/12/02 05:03:56;;;;;;;82.93;41.10;;;5.60;99.90;;;;;;2086322;28;20072;-71
2022/12/02 05:04:56;;;;;;;85.68;42.33;;;5.60;99.90;;;;;;2076820;28;20021;-71
2022/12/02 05:05:57;;;;;;;81.97;40.83;;;5.60;99.90;;;;;;2076115;28;20053;-71
2022/12/02 05:06:58;;;;;;;78.25;40.85;;;5.60;99.90;;;;;;2078626;28;20049;-72
2022/12/02 05:07:58;;;;;;;77.80;39.53;;;5.60;99.90;;;;;;2077486;28;20417;-72
2022/12/02 05:08:59;;;;;;;79.65;39.67;;;5.60;99.90;;;;;;2077949;28;20040;-71
2022/12/02 05:09:59;;;;;;;80.18;39.55;;;5.60;99.90;;;;;;2077644;28;20028;-72
2022/12/02 05:11:00;;;;;;;75.25;36.78;;;5.60;99.90;;;;;;2075115;28;20057;-72
2022/12/02 05:12:00;;;;;;;84.97;40.15;;;5.60;99.90;;;;;;2077951;28;20037;-71
2022/12/02 05:13:01;;;;;;;81.65;40.53;;;5.70;99.90;;;;;;2076100;28;20025;-71
2022/12/02 05:14:01;;;;;;;80.85;39.80;;;5.60;99.90;;;;;;2076814;28;20137;-71
2022/12/02 05:15:02;;;;;;;82.32;40.83;;;5.60;99.90;;;;;;2076336;28;20084;-72
2022/12/02 05:16:03;;;;;;;83.35;39.60;;;5.60;99.90;;;;;;2077147;28;20030;-71
2022/12/02 05:17:03;;;;;;;77.30;40.13;;;5.60;99.90;;;;;;2077323;28;20045;-72
2022/12/02 05:18:04;;;;;;;82.00;41.53;;;5.60;99.90;;;;;;2076911;28;20080;-72